TAM3306 SBGR-SBSV
Flight info
| Callsign | TAM3306 |
|---|---|
| Flight time | 1h 53m |
| Altitude | 37000 |
| Route | VUMEV UZ14 ZUMBA |
| Aircraft | A20N/M-SDE2E3FGHIRWXY/LB1 |
Departure
| Time | 2026-05-03 23:57 |
|---|---|
| Airport | São Paulo/Guarulhos–Governor André Franco Montoro International Airport (SBGR) |
Arrival
| Time | 2026-05-04 01:51 |
|---|---|
| Airport | Deputado Luiz Eduardo Magalhães International Airport (SBSV) |
| Time | Latitude | Longitude | Altitude | Speed | Heading |
|---|---|---|---|---|---|
| 2026-05-03 23:30 | -23.42831 | -46.47946 | 2476 ft | 0 kts | 262° |
| 2026-05-03 23:43 | -23.42831 | -46.47944 | 2476 ft | 2 kts | 262° |
| 2026-05-03 23:44 | -23.42828 | -46.47926 | 2476 ft | 2 kts | 259° |
| 2026-05-03 23:44 | -23.42825 | -46.47909 | 2476 ft | 2 kts | 253° |
| 2026-05-03 23:44 | -23.42819 | -46.47892 | 2476 ft | 2 kts | 239° |
| 2026-05-03 23:44 | -23.42807 | -46.47880 | 2476 ft | 2 kts | 191° |
| 2026-05-03 23:45 | -23.42795 | -46.47880 | 2476 ft | 1 kts | 171° |
| 2026-05-03 23:45 | -23.42794 | -46.47880 | 2476 ft | 0 kts | 171° |
| 2026-05-03 23:49 | -23.42802 | -46.47879 | 2476 ft | 3 kts | 170° |
| 2026-05-03 23:50 | -23.42830 | -46.47873 | 2476 ft | 6 kts | 168° |
| 2026-05-03 23:50 | -23.42851 | -46.47861 | 2476 ft | 5 kts | 143° |
| 2026-05-03 23:50 | -23.42900 | -46.47835 | 2476 ft | 7 kts | 163° |
| 2026-05-03 23:50 | -23.42952 | -46.47823 | 2476 ft | 9 kts | 167° |
| 2026-05-03 23:51 | -23.43021 | -46.47807 | 2476 ft | 11 kts | 169° |
| 2026-05-03 23:51 | -23.43101 | -46.47807 | 2476 ft | 12 kts | 217° |
| 2026-05-03 23:51 | -23.43134 | -46.47888 | 2476 ft | 11 kts | 253° |
| 2026-05-03 23:51 | -23.43153 | -46.47955 | 2476 ft | 8 kts | 252° |
| 2026-05-03 23:52 | -23.43165 | -46.47997 | 2476 ft | 4 kts | 252° |
| 2026-05-03 23:52 | -23.43174 | -46.48032 | 2477 ft | 7 kts | 260° |
| 2026-05-03 23:52 | -23.43192 | -46.48102 | 2477 ft | 12 kts | 253° |
| 2026-05-03 23:52 | -23.43215 | -46.48191 | 2477 ft | 11 kts | 254° |
| 2026-05-03 23:53 | -23.43235 | -46.48267 | 2478 ft | 9 kts | 254° |
| 2026-05-03 23:53 | -23.43259 | -46.48323 | 2478 ft | 8 kts | 231° |
| 2026-05-03 23:53 | -23.43299 | -46.48351 | 2478 ft | 6 kts | 196° |
| 2026-05-03 23:53 | -23.43340 | -46.48351 | 2478 ft | 5 kts | 173° |
| 2026-05-03 23:54 | -23.43373 | -46.48342 | 2478 ft | 5 kts | 162° |
| 2026-05-03 23:54 | -23.43402 | -46.48327 | 2477 ft | 5 kts | 141° |
| 2026-05-03 23:54 | -23.43416 | -46.48294 | 2477 ft | 5 kts | 92° |
| 2026-05-03 23:54 | -23.43412 | -46.48272 | 2477 ft | 0 kts | 75° |
| 2026-05-03 23:56 | -23.43394 | -46.48201 | 2477 ft | 34 kts | 74° |
| 2026-05-03 23:57 | -23.43267 | -46.47739 | 2476 ft | 93 kts | 73° |
| 2026-05-03 23:57 | -23.43031 | -46.46865 | 2477 ft | 146 kts | 73° |
| 2026-05-03 23:57 | -23.42737 | -46.45686 | 2678 ft | 164 kts | 76° |
| 2026-05-03 23:57 | -23.42461 | -46.44521 | 3328 ft | 155 kts | 77° |
| 2026-05-03 23:58 | -23.42155 | -46.43406 | 3945 ft | 155 kts | 76° |
| 2026-05-03 23:58 | -23.41786 | -46.42209 | 4350 ft | 180 kts | 74° |
| 2026-05-03 23:58 | -23.41358 | -46.40833 | 4701 ft | 202 kts | 74° |
| 2026-05-03 23:58 | -23.40887 | -46.39282 | 4993 ft | 231 kts | 74° |
| 2026-05-03 23:59 | -23.40365 | -46.37538 | 5445 ft | 251 kts | 73° |
| 2026-05-03 23:59 | -23.39662 | -46.35749 | 6122 ft | 262 kts | 62° |
| 2026-05-03 23:59 | -23.38723 | -46.34028 | 6898 ft | 267 kts | 58° |
| 2026-05-03 23:59 | -23.37723 | -46.32310 | 7650 ft | 272 kts | 57° |
| 2026-05-04 00:00 | -23.36694 | -46.30555 | 8366 ft | 279 kts | 57° |
| 2026-05-04 00:00 | -23.35640 | -46.28750 | 9064 ft | 287 kts | 56° |
| 2026-05-04 00:00 | -23.34560 | -46.26897 | 9793 ft | 294 kts | 56° |
| 2026-05-04 00:00 | -23.33455 | -46.24997 | 10501 ft | 301 kts | 56° |
| 2026-05-04 00:01 | -23.32298 | -46.23006 | 10844 ft | 322 kts | 56° |
| 2026-05-04 00:01 | -23.31068 | -46.20890 | 11196 ft | 339 kts | 57° |
| 2026-05-04 00:01 | -23.29791 | -46.18689 | 11742 ft | 348 kts | 57° |
| 2026-05-04 00:01 | -23.28507 | -46.16476 | 12351 ft | 354 kts | 57° |
| 2026-05-04 00:02 | -23.27178 | -46.14186 | 12951 ft | 360 kts | 57° |
| 2026-05-04 00:02 | -23.25831 | -46.11867 | 13593 ft | 365 kts | 57° |
| 2026-05-04 00:02 | -23.24467 | -46.09520 | 14218 ft | 370 kts | 57° |
| 2026-05-04 00:02 | -23.23077 | -46.07141 | 14762 ft | 375 kts | 55° |
| 2026-05-04 00:03 | -23.21438 | -46.04927 | 15296 ft | 378 kts | 41° |
| 2026-05-04 00:03 | -23.19309 | -46.03321 | 15825 ft | 379 kts | 23° |
| 2026-05-04 00:03 | -23.16868 | -46.02237 | 16389 ft | 381 kts | 17° |
| 2026-05-04 00:03 | -23.14351 | -46.01278 | 16945 ft | 385 kts | 15° |
| 2026-05-04 00:04 | -23.11759 | -46.00562 | 17513 ft | 385 kts | 5° |
| 2026-05-04 00:04 | -23.09098 | -46.00173 | 18049 ft | 387 kts | 2° |
| 2026-05-04 00:04 | -23.06404 | -45.99855 | 18565 ft | 391 kts | 1° |
| 2026-05-04 00:04 | -23.03684 | -45.99540 | 19033 ft | 395 kts | 1° |
| 2026-05-04 00:05 | -23.00941 | -45.99217 | 19539 ft | 397 kts | 1° |
| 2026-05-04 00:05 | -22.98187 | -45.98888 | 20037 ft | 400 kts | 1° |
| 2026-05-04 00:05 | -22.95409 | -45.98553 | 20532 ft | 403 kts | 1° |
| 2026-05-04 00:05 | -22.92613 | -45.98208 | 21087 ft | 406 kts | 1° |
| 2026-05-04 00:06 | -22.90720 | -45.97859 | 21422 ft | 412 kts | 7° |
| 2026-05-04 00:06 | -22.87969 | -45.96877 | 21905 ft | 423 kts | 19° |
| 2026-05-04 00:06 | -22.85364 | -45.95343 | 22404 ft | 430 kts | 26° |
| 2026-05-04 00:06 | -22.82837 | -45.93572 | 22893 ft | 435 kts | 29° |
| 2026-05-04 00:07 | -22.80374 | -45.91709 | 23327 ft | 440 kts | 30° |
| 2026-05-04 00:07 | -22.77874 | -45.89767 | 23783 ft | 444 kts | 31° |
| 2026-05-04 00:07 | -22.75359 | -45.87806 | 24188 ft | 447 kts | 30° |
| 2026-05-04 00:07 | -22.72820 | -45.85842 | 24586 ft | 449 kts | 30° |
| 2026-05-04 00:08 | -22.70260 | -45.83884 | 24997 ft | 451 kts | 30° |
| 2026-05-04 00:08 | -22.67686 | -45.81932 | 25395 ft | 453 kts | 29° |
| 2026-05-04 00:08 | -22.65091 | -45.79978 | 25782 ft | 455 kts | 29° |
| 2026-05-04 00:08 | -22.62480 | -45.78017 | 26152 ft | 458 kts | 28° |
| 2026-05-04 00:09 | -22.59857 | -45.76050 | 26531 ft | 459 kts | 28° |
| 2026-05-04 00:09 | -22.57227 | -45.74077 | 26898 ft | 462 kts | 28° |
| 2026-05-04 00:09 | -22.54577 | -45.72090 | 27241 ft | 464 kts | 28° |
| 2026-05-04 00:09 | -22.51917 | -45.70097 | 27589 ft | 467 kts | 28° |
| 2026-05-04 00:10 | -22.49238 | -45.68091 | 27911 ft | 469 kts | 28° |
| 2026-05-04 00:10 | -22.46547 | -45.66072 | 28230 ft | 472 kts | 28° |
| 2026-05-04 00:10 | -22.43841 | -45.64045 | 28561 ft | 474 kts | 28° |
| 2026-05-04 00:10 | -22.41126 | -45.62012 | 28896 ft | 476 kts | 28° |
| 2026-05-04 00:11 | -22.38397 | -45.59972 | 29212 ft | 479 kts | 28° |
| 2026-05-04 00:11 | -22.35649 | -45.57916 | 29509 ft | 481 kts | 28° |
| 2026-05-04 00:11 | -22.32887 | -45.55854 | 29790 ft | 484 kts | 28° |
| 2026-05-04 00:11 | -22.30111 | -45.53783 | 30090 ft | 486 kts | 28° |
| 2026-05-04 00:12 | -22.27322 | -45.51701 | 30368 ft | 488 kts | 28° |
| 2026-05-04 00:12 | -22.24522 | -45.49610 | 30632 ft | 490 kts | 28° |
| 2026-05-04 00:12 | -22.21711 | -45.47513 | 30894 ft | 492 kts | 28° |
| 2026-05-04 00:12 | -22.18903 | -45.45417 | 31237 ft | 490 kts | 28° |
| 2026-05-04 00:13 | -22.16100 | -45.43325 | 31610 ft | 489 kts | 28° |
| 2026-05-04 00:13 | -22.13304 | -45.41240 | 31958 ft | 488 kts | 28° |
| 2026-05-04 00:13 | -22.10514 | -45.39161 | 32321 ft | 487 kts | 28° |
| 2026-05-04 00:13 | -22.07729 | -45.37088 | 32673 ft | 486 kts | 28° |
| 2026-05-04 00:14 | -22.04951 | -45.35022 | 33031 ft | 485 kts | 28° |
| 2026-05-04 00:14 | -22.02212 | -45.32893 | 33371 ft | 486 kts | 30° |
| 2026-05-04 00:14 | -21.99523 | -45.30675 | 33699 ft | 487 kts | 31° |
| 2026-05-04 00:14 | -21.96864 | -45.28415 | 33991 ft | 487 kts | 32° |
| 2026-05-04 00:15 | -21.94215 | -45.26141 | 34289 ft | 486 kts | 32° |
| 2026-05-04 00:15 | -21.91608 | -45.23905 | 34543 ft | 485 kts | 32° |
| 2026-05-04 00:15 | -21.88961 | -45.21644 | 34793 ft | 485 kts | 32° |
| 2026-05-04 00:15 | -21.86313 | -45.19397 | 35026 ft | 485 kts | 32° |
| 2026-05-04 00:16 | -21.83663 | -45.17157 | 35272 ft | 484 kts | 32° |
| 2026-05-04 00:16 | -21.81013 | -45.14922 | 35529 ft | 483 kts | 31° |
| 2026-05-04 00:16 | -21.78366 | -45.12695 | 35750 ft | 483 kts | 31° |
| 2026-05-04 00:16 | -21.75722 | -45.10473 | 35967 ft | 483 kts | 31° |
| 2026-05-04 00:17 | -21.73078 | -45.08251 | 36177 ft | 482 kts | 31° |
| 2026-05-04 00:17 | -21.70433 | -45.06030 | 36380 ft | 482 kts | 31° |
| 2026-05-04 00:17 | -21.67789 | -45.03810 | 36589 ft | 482 kts | 31° |
| 2026-05-04 00:17 | -21.65144 | -45.01590 | 36796 ft | 482 kts | 31° |
| 2026-05-04 00:18 | -21.62507 | -44.99378 | 36991 ft | 482 kts | 31° |
| 2026-05-04 00:18 | -21.59863 | -44.97160 | 37148 ft | 482 kts | 31° |
| 2026-05-04 00:18 | -21.54577 | -44.92729 | 37199 ft | 481 kts | 31° |
| 2026-05-04 00:19 | -21.49306 | -44.88315 | 37202 ft | 480 kts | 31° |
| 2026-05-04 00:19 | -21.44036 | -44.83908 | 37206 ft | 480 kts | 31° |
| 2026-05-04 00:20 | -21.38766 | -44.79503 | 37206 ft | 480 kts | 32° |
| 2026-05-04 00:20 | -21.33500 | -44.75104 | 37207 ft | 479 kts | 31° |
| 2026-05-04 00:21 | -21.28241 | -44.70713 | 37203 ft | 479 kts | 31° |
| 2026-05-04 00:21 | -21.23017 | -44.66357 | 37194 ft | 479 kts | 32° |
| 2026-05-04 00:22 | -21.17762 | -44.61977 | 37205 ft | 478 kts | 32° |
| 2026-05-04 00:22 | -21.12513 | -44.57607 | 37205 ft | 478 kts | 32° |
| 2026-05-04 00:23 | -21.07263 | -44.53239 | 37208 ft | 478 kts | 31° |
| 2026-05-04 00:23 | -21.02011 | -44.48876 | 37206 ft | 478 kts | 31° |
| 2026-05-04 00:24 | -20.96758 | -44.44515 | 37207 ft | 478 kts | 31° |
| 2026-05-04 00:24 | -20.91499 | -44.40156 | 37209 ft | 478 kts | 31° |
| 2026-05-04 00:25 | -20.86246 | -44.35806 | 37194 ft | 477 kts | 32° |
| 2026-05-04 00:25 | -20.81005 | -44.31470 | 37207 ft | 476 kts | 32° |
| 2026-05-04 00:26 | -20.75769 | -44.27143 | 37208 ft | 476 kts | 31° |
| 2026-05-04 00:26 | -20.70529 | -44.22816 | 37203 ft | 476 kts | 32° |
| 2026-05-04 00:27 | -20.65292 | -44.18495 | 37207 ft | 475 kts | 32° |
| 2026-05-04 00:27 | -20.60083 | -44.14153 | 37203 ft | 475 kts | 32° |
| 2026-05-04 00:28 | -20.54899 | -44.09779 | 37197 ft | 475 kts | 32° |
| 2026-05-04 00:28 | -20.49707 | -44.05410 | 37200 ft | 475 kts | 32° |
| 2026-05-04 00:29 | -20.44486 | -44.01115 | 37189 ft | 473 kts | 31° |
| 2026-05-04 00:29 | -20.39261 | -43.96853 | 37197 ft | 473 kts | 31° |
| 2026-05-04 00:30 | -20.34040 | -43.92595 | 37187 ft | 472 kts | 31° |
| 2026-05-04 00:30 | -20.28826 | -43.88339 | 37191 ft | 472 kts | 31° |
| 2026-05-04 00:31 | -20.23611 | -43.84085 | 37185 ft | 473 kts | 31° |
| 2026-05-04 00:31 | -20.18422 | -43.79857 | 37176 ft | 472 kts | 31° |
| 2026-05-04 00:32 | -20.13210 | -43.75608 | 37178 ft | 472 kts | 31° |
| 2026-05-04 00:32 | -20.08000 | -43.71365 | 37184 ft | 472 kts | 32° |
| 2026-05-04 00:33 | -20.00168 | -43.64997 | 37180 ft | 472 kts | 31° |
| 2026-05-04 00:34 | -19.94948 | -43.60757 | 37181 ft | 472 kts | 31° |
| 2026-05-04 00:34 | -19.89728 | -43.56519 | 37159 ft | 472 kts | 32° |
| 2026-05-04 00:35 | -19.84517 | -43.52283 | 37167 ft | 472 kts | 32° |
| 2026-05-04 00:35 | -19.79296 | -43.48039 | 37165 ft | 473 kts | 32° |
| 2026-05-04 00:36 | -19.74077 | -43.43798 | 37167 ft | 472 kts | 32° |
| 2026-05-04 00:36 | -19.68863 | -43.39565 | 37164 ft | 471 kts | 32° |
| 2026-05-04 00:37 | -19.63661 | -43.35346 | 37167 ft | 471 kts | 32° |
| 2026-05-04 00:37 | -19.58457 | -43.31129 | 37162 ft | 471 kts | 32° |
| 2026-05-04 00:38 | -19.53252 | -43.26914 | 37153 ft | 471 kts | 32° |
| 2026-05-04 00:38 | -19.48044 | -43.22700 | 37152 ft | 471 kts | 32° |
| 2026-05-04 00:39 | -19.42839 | -43.18493 | 37149 ft | 471 kts | 32° |
| 2026-05-04 00:39 | -19.37635 | -43.14289 | 37144 ft | 471 kts | 32° |
| 2026-05-04 00:40 | -19.32424 | -43.10083 | 37146 ft | 471 kts | 32° |
| 2026-05-04 00:40 | -19.27246 | -43.05907 | 37140 ft | 471 kts | 32° |
| 2026-05-04 00:41 | -19.22041 | -43.01713 | 37133 ft | 470 kts | 32° |
| 2026-05-04 00:41 | -19.16840 | -42.97525 | 37134 ft | 470 kts | 32° |
| 2026-05-04 00:42 | -19.11635 | -42.93338 | 37135 ft | 470 kts | 32° |
| 2026-05-04 00:42 | -19.06426 | -42.89151 | 37136 ft | 470 kts | 32° |
| 2026-05-04 00:43 | -19.01223 | -42.84972 | 37133 ft | 470 kts | 32° |
| 2026-05-04 00:43 | -18.95979 | -42.80764 | 37136 ft | 470 kts | 32° |
| 2026-05-04 00:44 | -18.90807 | -42.76618 | 37123 ft | 470 kts | 32° |
| 2026-05-04 00:44 | -18.85604 | -42.72449 | 37134 ft | 469 kts | 32° |
| 2026-05-04 00:45 | -18.80406 | -42.68289 | 37141 ft | 469 kts | 32° |
| 2026-05-04 00:45 | -18.75206 | -42.64133 | 37138 ft | 469 kts | 32° |
| 2026-05-04 00:46 | -18.70006 | -42.59978 | 37124 ft | 469 kts | 32° |
| 2026-05-04 00:46 | -18.64806 | -42.55825 | 37134 ft | 469 kts | 33° |
| 2026-05-04 00:47 | -18.59607 | -42.51677 | 37130 ft | 468 kts | 33° |
| 2026-05-04 00:47 | -18.54409 | -42.47532 | 37128 ft | 469 kts | 33° |
| 2026-05-04 00:48 | -18.49211 | -42.43391 | 37116 ft | 468 kts | 33° |
| 2026-05-04 00:48 | -18.44012 | -42.39251 | 37127 ft | 468 kts | 33° |
| 2026-05-04 00:49 | -18.38853 | -42.35148 | 37117 ft | 468 kts | 33° |
| 2026-05-04 00:49 | -18.33657 | -42.31018 | 37119 ft | 468 kts | 33° |
| 2026-05-04 00:50 | -18.28457 | -42.26888 | 37112 ft | 468 kts | 33° |
| 2026-05-04 00:50 | -18.23265 | -42.22769 | 37118 ft | 468 kts | 33° |
| 2026-05-04 00:51 | -18.18063 | -42.18645 | 37120 ft | 468 kts | 33° |
| 2026-05-04 00:51 | -18.12861 | -42.14524 | 37123 ft | 468 kts | 33° |
| 2026-05-04 00:52 | -18.07658 | -42.10405 | 37106 ft | 468 kts | 33° |
| 2026-05-04 00:52 | -18.02460 | -42.06293 | 37124 ft | 468 kts | 33° |
| 2026-05-04 00:53 | -17.97260 | -42.02183 | 37130 ft | 467 kts | 33° |
| 2026-05-04 00:53 | -17.92061 | -41.98077 | 37135 ft | 468 kts | 33° |
| 2026-05-04 00:54 | -17.86861 | -41.93973 | 37145 ft | 468 kts | 33° |
| 2026-05-04 00:54 | -17.82539 | -41.90564 | 37137 ft | 467 kts | 33° |
| 2026-05-04 00:55 | -17.76458 | -41.85772 | 37148 ft | 468 kts | 33° |
| 2026-05-04 00:55 | -17.72132 | -41.82366 | 37149 ft | 467 kts | 33° |
| 2026-05-04 00:56 | -17.66931 | -41.78273 | 37152 ft | 467 kts | 33° |
| 2026-05-04 00:56 | -17.61730 | -41.74184 | 37156 ft | 468 kts | 33° |
| 2026-05-04 00:57 | -17.56522 | -41.70092 | 37160 ft | 468 kts | 33° |
| 2026-05-04 00:57 | -17.51318 | -41.66005 | 37150 ft | 467 kts | 33° |
| 2026-05-04 00:58 | -17.46115 | -41.61922 | 37159 ft | 467 kts | 33° |
| 2026-05-04 00:58 | -17.40913 | -41.57843 | 37149 ft | 467 kts | 33° |
| 2026-05-04 00:59 | -17.35713 | -41.53768 | 37153 ft | 467 kts | 33° |
| 2026-05-04 00:59 | -17.30510 | -41.49694 | 37156 ft | 467 kts | 33° |
| 2026-05-04 01:00 | -17.25315 | -41.45628 | 37162 ft | 467 kts | 33° |
| 2026-05-04 01:00 | -17.20148 | -41.41588 | 37161 ft | 467 kts | 33° |
| 2026-05-04 01:01 | -17.14954 | -41.37528 | 37164 ft | 466 kts | 33° |
| 2026-05-04 01:01 | -17.09763 | -41.33474 | 37157 ft | 465 kts | 33° |
| 2026-05-04 01:02 | -17.04577 | -41.29427 | 37157 ft | 465 kts | 33° |
| 2026-05-04 01:02 | -16.99392 | -41.25383 | 37155 ft | 465 kts | 33° |
| 2026-05-04 01:03 | -16.94206 | -41.21342 | 37151 ft | 465 kts | 33° |
| 2026-05-04 01:03 | -16.89013 | -41.17299 | 37155 ft | 466 kts | 33° |
| 2026-05-04 01:04 | -16.83823 | -41.13260 | 37157 ft | 465 kts | 33° |
| 2026-05-04 01:04 | -16.78629 | -41.09221 | 37150 ft | 465 kts | 33° |
| 2026-05-04 01:05 | -16.73438 | -41.05188 | 37150 ft | 465 kts | 33° |
| 2026-05-04 01:05 | -16.68254 | -41.01162 | 37148 ft | 465 kts | 33° |
| 2026-05-04 01:06 | -16.63071 | -40.97140 | 37147 ft | 464 kts | 33° |
| 2026-05-04 01:06 | -16.57885 | -40.93119 | 37144 ft | 464 kts | 33° |
| 2026-05-04 01:07 | -16.52702 | -40.89102 | 37141 ft | 464 kts | 33° |
| 2026-05-04 01:07 | -16.47521 | -40.85090 | 37139 ft | 464 kts | 33° |
| 2026-05-04 01:08 | -16.42346 | -40.81085 | 37141 ft | 464 kts | 33° |
| 2026-05-04 01:08 | -16.37201 | -40.77107 | 37136 ft | 464 kts | 33° |
| 2026-05-04 01:09 | -16.32022 | -40.73105 | 37127 ft | 464 kts | 34° |
| 2026-05-04 01:09 | -16.26842 | -40.69105 | 37131 ft | 464 kts | 33° |
| 2026-05-04 01:10 | -16.21661 | -40.65107 | 37125 ft | 464 kts | 34° |
| 2026-05-04 01:10 | -16.16476 | -40.61107 | 37126 ft | 464 kts | 33° |
| 2026-05-04 01:11 | -16.11296 | -40.57114 | 37127 ft | 464 kts | 33° |
| 2026-05-04 01:11 | -16.06113 | -40.53122 | 37128 ft | 463 kts | 34° |
| 2026-05-04 01:12 | -16.00934 | -40.49135 | 37123 ft | 463 kts | 34° |
| 2026-05-04 01:12 | -15.95756 | -40.45153 | 37124 ft | 463 kts | 34° |
| 2026-05-04 01:13 | -15.90581 | -40.41179 | 37120 ft | 463 kts | 34° |
| 2026-05-04 01:13 | -15.85397 | -40.37202 | 37120 ft | 463 kts | 34° |
| 2026-05-04 01:14 | -15.80216 | -40.33230 | 37120 ft | 463 kts | 34° |
| 2026-05-04 01:14 | -15.75039 | -40.29263 | 37119 ft | 463 kts | 34° |
| 2026-05-04 01:15 | -15.69859 | -40.25297 | 37125 ft | 463 kts | 34° |
| 2026-05-04 01:15 | -15.64681 | -40.21334 | 37121 ft | 463 kts | 34° |
| 2026-05-04 01:16 | -15.59500 | -40.17373 | 37113 ft | 462 kts | 34° |
| 2026-05-04 01:16 | -15.54332 | -40.13429 | 37113 ft | 460 kts | 34° |
| 2026-05-04 01:17 | -15.49186 | -40.09508 | 37110 ft | 459 kts | 34° |
| 2026-05-04 01:17 | -15.44043 | -40.05591 | 37111 ft | 459 kts | 34° |
| 2026-05-04 01:18 | -15.38895 | -40.01673 | 37104 ft | 459 kts | 34° |
| 2026-05-04 01:18 | -15.33785 | -39.97786 | 37105 ft | 459 kts | 34° |
| 2026-05-04 01:19 | -15.28645 | -39.93878 | 37109 ft | 459 kts | 34° |
| 2026-05-04 01:19 | -15.23502 | -39.89971 | 37108 ft | 459 kts | 34° |
| 2026-05-04 01:20 | -15.18356 | -39.86064 | 37110 ft | 459 kts | 34° |
| 2026-05-04 01:20 | -15.13213 | -39.82161 | 37110 ft | 458 kts | 34° |
| 2026-05-04 01:21 | -15.08074 | -39.78265 | 36853 ft | 459 kts | 34° |
| 2026-05-04 01:21 | -15.05487 | -39.76305 | 36607 ft | 461 kts | 34° |
| 2026-05-04 01:21 | -15.02899 | -39.74344 | 36363 ft | 461 kts | 34° |
| 2026-05-04 01:21 | -15.00310 | -39.72384 | 36122 ft | 461 kts | 33° |
| 2026-05-04 01:22 | -14.97594 | -39.70637 | 35882 ft | 459 kts | 26° |
| 2026-05-04 01:22 | -14.94759 | -39.69128 | 35647 ft | 459 kts | 24° |
| 2026-05-04 01:22 | -14.91892 | -39.67663 | 35419 ft | 459 kts | 24° |
| 2026-05-04 01:22 | -14.89029 | -39.66205 | 35182 ft | 459 kts | 24° |
| 2026-05-04 01:23 | -14.86165 | -39.64745 | 34955 ft | 459 kts | 25° |
| 2026-05-04 01:23 | -14.83302 | -39.63284 | 34722 ft | 459 kts | 25° |
| 2026-05-04 01:23 | -14.80442 | -39.61822 | 34495 ft | 458 kts | 25° |
| 2026-05-04 01:23 | -14.77590 | -39.60364 | 34269 ft | 456 kts | 25° |
| 2026-05-04 01:24 | -14.74751 | -39.58912 | 34030 ft | 454 kts | 25° |
| 2026-05-04 01:24 | -14.71925 | -39.57467 | 33770 ft | 452 kts | 25° |
| 2026-05-04 01:24 | -14.69116 | -39.56030 | 33524 ft | 450 kts | 25° |
| 2026-05-04 01:24 | -14.66316 | -39.54599 | 33269 ft | 447 kts | 25° |
| 2026-05-04 01:25 | -14.63535 | -39.53177 | 33020 ft | 445 kts | 25° |
| 2026-05-04 01:25 | -14.60763 | -39.51762 | 32770 ft | 443 kts | 25° |
| 2026-05-04 01:25 | -14.58011 | -39.50356 | 32526 ft | 441 kts | 25° |
| 2026-05-04 01:25 | -14.55265 | -39.48954 | 32282 ft | 439 kts | 25° |
| 2026-05-04 01:26 | -14.52538 | -39.47562 | 32037 ft | 437 kts | 25° |
| 2026-05-04 01:26 | -14.49820 | -39.46174 | 31797 ft | 435 kts | 25° |
| 2026-05-04 01:26 | -14.47153 | -39.44814 | 31568 ft | 433 kts | 25° |
| 2026-05-04 01:26 | -14.44462 | -39.43441 | 31302 ft | 431 kts | 25° |
| 2026-05-04 01:27 | -14.41781 | -39.42074 | 31135 ft | 429 kts | 25° |
| 2026-05-04 01:27 | -14.36437 | -39.39350 | 31129 ft | 427 kts | 25° |
| 2026-05-04 01:28 | -14.31109 | -39.36636 | 31128 ft | 427 kts | 25° |
| 2026-05-04 01:28 | -14.25781 | -39.33923 | 31129 ft | 427 kts | 25° |
| 2026-05-04 01:29 | -14.20455 | -39.31213 | 31128 ft | 427 kts | 25° |
| 2026-05-04 01:29 | -14.15132 | -39.28505 | 31122 ft | 427 kts | 25° |
| 2026-05-04 01:30 | -14.09780 | -39.25785 | 30816 ft | 433 kts | 25° |
| 2026-05-04 01:30 | -14.07061 | -39.24403 | 30120 ft | 438 kts | 25° |
| 2026-05-04 01:30 | -14.04319 | -39.23010 | 29404 ft | 440 kts | 25° |
| 2026-05-04 01:30 | -14.01574 | -39.21616 | 28812 ft | 439 kts | 25° |
| 2026-05-04 01:31 | -13.98844 | -39.20230 | 28307 ft | 436 kts | 26° |
| 2026-05-04 01:31 | -13.96139 | -39.18856 | 27814 ft | 433 kts | 25° |
| 2026-05-04 01:31 | -13.93455 | -39.17494 | 27282 ft | 427 kts | 25° |
| 2026-05-04 01:31 | -13.90802 | -39.16148 | 26578 ft | 423 kts | 26° |
| 2026-05-04 01:32 | -13.88178 | -39.14817 | 25897 ft | 418 kts | 26° |
| 2026-05-04 01:32 | -13.85577 | -39.13499 | 25209 ft | 414 kts | 26° |
| 2026-05-04 01:32 | -13.83005 | -39.12194 | 24551 ft | 410 kts | 26° |
| 2026-05-04 01:32 | -13.80463 | -39.10906 | 23910 ft | 405 kts | 27° |
| 2026-05-04 01:33 | -13.77940 | -39.09628 | 23161 ft | 402 kts | 27° |
| 2026-05-04 01:33 | -13.75450 | -39.08367 | 22449 ft | 397 kts | 27° |
| 2026-05-04 01:33 | -13.72978 | -39.07114 | 21694 ft | 394 kts | 27° |
| 2026-05-04 01:33 | -13.70541 | -39.05878 | 20949 ft | 386 kts | 28° |
| 2026-05-04 01:34 | -13.68155 | -39.04667 | 20227 ft | 378 kts | 29° |
| 2026-05-04 01:34 | -13.66033 | -39.03107 | 19424 ft | 376 kts | 44° |
| 2026-05-04 01:34 | -13.64123 | -39.01283 | 18697 ft | 374 kts | 45° |
| 2026-05-04 01:34 | -13.62236 | -38.99516 | 18026 ft | 370 kts | 43° |
| 2026-05-04 01:35 | -13.60283 | -38.97771 | 17323 ft | 365 kts | 43° |
| 2026-05-04 01:35 | -13.58374 | -38.96124 | 16629 ft | 361 kts | 42° |
| 2026-05-04 01:35 | -13.56451 | -38.94501 | 15983 ft | 355 kts | 41° |
| 2026-05-04 01:35 | -13.54545 | -38.92913 | 15343 ft | 350 kts | 41° |
| 2026-05-04 01:36 | -13.52670 | -38.91361 | 14843 ft | 342 kts | 41° |
| 2026-05-04 01:36 | -13.50842 | -38.89854 | 14371 ft | 333 kts | 41° |
| 2026-05-04 01:36 | -13.49054 | -38.88384 | 13915 ft | 325 kts | 41° |
| 2026-05-04 01:36 | -13.47312 | -38.86953 | 13431 ft | 317 kts | 41° |
| 2026-05-04 01:37 | -13.45612 | -38.85558 | 12992 ft | 309 kts | 41° |
| 2026-05-04 01:37 | -13.43950 | -38.84194 | 12566 ft | 303 kts | 41° |
| 2026-05-04 01:37 | -13.42318 | -38.82854 | 12145 ft | 297 kts | 41° |
| 2026-05-04 01:37 | -13.40715 | -38.81540 | 11726 ft | 293 kts | 41° |
| 2026-05-04 01:38 | -13.39118 | -38.80229 | 11312 ft | 295 kts | 41° |
| 2026-05-04 01:38 | -13.37513 | -38.78910 | 10882 ft | 297 kts | 41° |
| 2026-05-04 01:38 | -13.35891 | -38.77577 | 10455 ft | 300 kts | 41° |
| 2026-05-04 01:38 | -13.34260 | -38.76238 | 10060 ft | 300 kts | 41° |
| 2026-05-04 01:39 | -13.32658 | -38.74925 | 9842 ft | 291 kts | 41° |
| 2026-05-04 01:39 | -13.31082 | -38.73633 | 9401 ft | 290 kts | 41° |
| 2026-05-04 01:39 | -13.29512 | -38.72345 | 8998 ft | 287 kts | 41° |
| 2026-05-04 01:39 | -13.27955 | -38.71068 | 8603 ft | 285 kts | 41° |
| 2026-05-04 01:40 | -13.26410 | -38.69801 | 8224 ft | 283 kts | 42° |
| 2026-05-04 01:40 | -13.24874 | -38.68541 | 7837 ft | 282 kts | 42° |
| 2026-05-04 01:40 | -13.23344 | -38.67287 | 7458 ft | 281 kts | 42° |
| 2026-05-04 01:40 | -13.21818 | -38.66036 | 7084 ft | 280 kts | 43° |
| 2026-05-04 01:41 | -13.20297 | -38.64789 | 6700 ft | 280 kts | 43° |
| 2026-05-04 01:41 | -13.18780 | -38.63546 | 6304 ft | 279 kts | 43° |
| 2026-05-04 01:41 | -13.17270 | -38.62309 | 5922 ft | 277 kts | 43° |
| 2026-05-04 01:41 | -13.15769 | -38.61079 | 5541 ft | 276 kts | 43° |
| 2026-05-04 01:42 | -13.14289 | -38.59871 | 5163 ft | 275 kts | 42° |
| 2026-05-04 01:42 | -13.12781 | -38.58642 | 4886 ft | 271 kts | 41° |
| 2026-05-04 01:42 | -13.11348 | -38.57480 | 4743 ft | 261 kts | 42° |
| 2026-05-04 01:42 | -13.09957 | -38.56351 | 4599 ft | 250 kts | 42° |
| 2026-05-04 01:43 | -13.08610 | -38.55259 | 4390 ft | 243 kts | 42° |
| 2026-05-04 01:43 | -13.07302 | -38.54195 | 4220 ft | 237 kts | 42° |
| 2026-05-04 01:43 | -13.06030 | -38.53161 | 4125 ft | 227 kts | 42° |
| 2026-05-04 01:43 | -13.04782 | -38.52245 | 3969 ft | 216 kts | 33° |
| 2026-05-04 01:44 | -13.03385 | -38.51704 | 3664 ft | 215 kts | 16° |
| 2026-05-04 01:44 | -13.02392 | -38.51505 | 3391 ft | 216 kts | 12° |
| 2026-05-04 01:44 | -13.00907 | -38.51276 | 3007 ft | 215 kts | 11° |
| 2026-05-04 01:44 | -12.99432 | -38.51063 | 2677 ft | 213 kts | 11° |
| 2026-05-04 01:45 | -12.97991 | -38.50855 | 2471 ft | 203 kts | 11° |
| 2026-05-04 01:45 | -12.96650 | -38.50598 | 2308 ft | 189 kts | 21° |
| 2026-05-04 01:45 | -12.94641 | -38.49249 | 1897 ft | 165 kts | 58° |
| 2026-05-04 01:46 | -12.94105 | -38.48249 | 1729 ft | 160 kts | 75° |
| 2026-05-04 01:46 | -12.93814 | -38.47140 | 1739 ft | 160 kts | 82° |
| 2026-05-04 01:46 | -12.93602 | -38.46092 | 1701 ft | 141 kts | 82° |
| 2026-05-04 01:46 | -12.93413 | -38.45126 | 1705 ft | 138 kts | 84° |
| 2026-05-04 01:47 | -12.93227 | -38.44159 | 1720 ft | 138 kts | 83° |
| 2026-05-04 01:47 | -12.93045 | -38.43190 | 1685 ft | 138 kts | 83° |
| 2026-05-04 01:47 | -12.92855 | -38.42219 | 1671 ft | 139 kts | 83° |
| 2026-05-04 01:47 | -12.92658 | -38.41249 | 1509 ft | 139 kts | 82° |
| 2026-05-04 01:48 | -12.92465 | -38.40287 | 1317 ft | 137 kts | 83° |
| 2026-05-04 01:48 | -12.92275 | -38.39331 | 1132 ft | 137 kts | 82° |
| 2026-05-04 01:48 | -12.92083 | -38.38372 | 958 ft | 138 kts | 81° |
| 2026-05-04 01:48 | -12.91881 | -38.37405 | 797 ft | 139 kts | 80° |
| 2026-05-04 01:49 | -12.91682 | -38.36441 | 604 ft | 138 kts | 81° |
| 2026-05-04 01:49 | -12.91499 | -38.35477 | 422 ft | 138 kts | 81° |
| 2026-05-04 01:49 | -12.91307 | -38.34518 | 244 ft | 136 kts | 79° |
| 2026-05-04 01:49 | -12.91116 | -38.33566 | 65 ft | 136 kts | 82° |
| 2026-05-04 01:50 | -12.90942 | -38.32676 | 44 ft | 118 kts | 81° |
| 2026-05-04 01:50 | -12.90814 | -38.32042 | 44 ft | 62 kts | 78° |
| 2026-05-04 01:50 | -12.92193 | -38.38921 | 1046 ft | 137 kts | 83° |
| 2026-05-04 01:50 | -12.91083 | -38.33378 | 51 ft | 134 kts | 82° |
| 2026-05-04 01:51 | -12.90911 | -38.32512 | 41 ft | 112 kts | 79° |
| 2026-05-04 01:51 | -12.90800 | -38.31968 | 45 ft | 43 kts | 78° |
| 2026-05-04 01:51 | -12.90773 | -38.31833 | 47 ft | 13 kts | 79° |
| 2026-05-04 01:51 | -12.90781 | -38.31749 | 47 ft | 11 kts | 121° |
| 2026-05-04 01:52 | -12.90843 | -38.31714 | 47 ft | 10 kts | 167° |
| 2026-05-04 01:52 | -12.90897 | -38.31724 | 47 ft | 8 kts | 219° |
| 2026-05-04 01:52 | -12.90919 | -38.31773 | 45 ft | 8 kts | 255° |
| 2026-05-04 01:52 | -12.90931 | -38.31828 | 44 ft | 8 kts | 258° |
| 2026-05-04 01:53 | -12.90942 | -38.31886 | 46 ft | 9 kts | 258° |
| 2026-05-04 01:53 | -12.90954 | -38.31947 | 45 ft | 9 kts | 258° |
| 2026-05-04 01:53 | -12.90967 | -38.32011 | 45 ft | 9 kts | 258° |
| 2026-05-04 01:53 | -12.90980 | -38.32076 | 44 ft | 10 kts | 258° |
| 2026-05-04 01:54 | -12.90994 | -38.32147 | 43 ft | 10 kts | 258° |
| 2026-05-04 01:54 | -12.91010 | -38.32221 | 42 ft | 11 kts | 257° |
| 2026-05-04 01:54 | -12.91027 | -38.32301 | 41 ft | 12 kts | 257° |
| 2026-05-04 01:54 | -12.91043 | -38.32384 | 40 ft | 12 kts | 258° |
| 2026-05-04 01:55 | -12.91060 | -38.32467 | 39 ft | 12 kts | 259° |
| 2026-05-04 01:55 | -12.91076 | -38.32553 | 38 ft | 13 kts | 259° |
| 2026-05-04 01:55 | -12.91095 | -38.32645 | 37 ft | 13 kts | 258° |
| 2026-05-04 01:55 | -12.91114 | -38.32740 | 36 ft | 14 kts | 258° |
| 2026-05-04 01:56 | -12.91134 | -38.32843 | 34 ft | 15 kts | 258° |
| 2026-05-04 01:56 | -12.91156 | -38.32953 | 33 ft | 16 kts | 258° |
| 2026-05-04 01:56 | -12.91179 | -38.33069 | 31 ft | 17 kts | 258° |
| 2026-05-04 01:56 | -12.91203 | -38.33168 | 30 ft | 10 kts | 238° |
| 2026-05-04 01:57 | -12.91267 | -38.33174 | 30 ft | 10 kts | 168° |
| 2026-05-04 01:57 | -12.91333 | -38.33161 | 30 ft | 10 kts | 169° |
| 2026-05-04 01:57 | -12.91393 | -38.33154 | 30 ft | 6 kts | 207° |
| 2026-05-04 01:57 | -12.91398 | -38.33173 | 29 ft | 2 kts | 274° |
| 2026-05-04 01:58 | -12.91396 | -38.33192 | 29 ft | 3 kts | 272° |
| 2026-05-04 01:58 | -12.91396 | -38.33205 | 29 ft | 0 kts | 272° |